createdAt,value
2023-02-11T00:01:17.155Z,57.30
2023-02-11T00:03:44.180Z,56.10
2023-02-11T00:06:11.650Z,59.00
2023-02-11T00:08:39.401Z,60.78
2023-02-11T00:11:06.925Z,59.78
2023-02-11T00:13:33.843Z,61.28
2023-02-11T00:16:06.005Z,59.75
2023-02-11T00:18:32.968Z,56.00
2023-02-11T00:20:59.924Z,61.60
2023-02-11T00:23:26.902Z,56.40
2023-02-11T00:25:53.895Z,59.80
2023-02-11T00:28:20.902Z,62.35
2023-02-11T00:30:55.064Z,65.68
2023-02-11T00:33:22.297Z,55.88
2023-02-11T00:35:49.894Z,60.85
2023-02-11T00:38:18.225Z,57.97
2023-02-11T00:40:45.176Z,55.45
2023-02-11T00:43:12.110Z,61.28
2023-02-11T00:45:39.057Z,59.90
2023-02-11T00:48:06.089Z,59.60
2023-02-11T00:50:33.078Z,58.25
2023-02-11T00:53:00.081Z,57.80
2023-02-11T00:55:27.085Z,54.38
2023-02-11T00:57:55.301Z,59.03
2023-02-11T01:00:22.400Z,60.10
2023-02-11T01:02:49.384Z,60.00
2023-02-11T01:05:16.505Z,59.58
2023-02-11T01:07:43.551Z,63.38
2023-02-11T01:10:11.151Z,54.33
2023-02-11T01:12:38.590Z,56.45
2023-02-11T01:15:06.374Z,54.40
2023-02-11T01:17:34.749Z,57.85
2023-02-11T01:20:13.640Z,59.22
2023-02-11T01:22:40.827Z,56.38
2023-02-11T01:25:09.056Z,52.40
2023-02-11T01:27:36.696Z,55.17
2023-02-11T01:30:05.650Z,54.15
2023-02-11T01:32:32.953Z,49.60
2023-02-11T01:35:00.032Z,56.22
2023-02-11T01:37:27.081Z,58.38
2023-02-11T01:39:54.240Z,54.83
2023-02-11T01:42:23.632Z,54.58
2023-02-11T01:44:53.208Z,53.22
2023-02-11T01:47:21.198Z,50.65
2023-02-11T01:49:56.793Z,55.97
2023-02-11T01:52:31.764Z,53.67
2023-02-11T01:55:27.100Z,47.40
2023-02-11T01:58:00.396Z,52.35
2023-02-11T02:00:39.010Z,50.00
2023-02-11T02:03:12.324Z,53.13
2023-02-11T02:05:47.457Z,51.47
2023-02-11T02:08:29.537Z,54.25
2023-02-11T02:10:58.457Z,51.45
2023-02-11T02:13:26.349Z,53.38
2023-02-11T02:15:56.597Z,56.60
2023-02-11T02:18:32.104Z,49.53
2023-02-11T02:21:44.125Z,49.30
2023-02-11T02:24:29.181Z,53.83
2023-02-11T02:27:01.936Z,55.75
2023-02-11T02:29:58.876Z,51.95
2023-02-11T02:32:55.873Z,56.40
2023-02-11T02:35:48.042Z,48.53
2023-02-11T02:38:38.552Z,50.45
2023-02-11T02:41:11.776Z,52.90
2023-02-11T02:43:59.661Z,48.63
2023-02-11T02:46:45.092Z,53.22
2023-02-11T02:49:16.843Z,51.47
2023-02-11T02:51:52.465Z,58.80
2023-02-11T02:54:19.363Z,53.17
2023-02-11T02:57:18.152Z,51.42
2023-02-11T03:00:08.648Z,47.85
2023-02-11T03:02:47.907Z,48.55
2023-02-11T03:05:19.493Z,48.75
2023-02-11T03:08:00.719Z,55.00
2023-02-11T03:10:35.594Z,52.65
2023-02-11T03:13:04.541Z,46.40
2023-02-11T03:15:36.810Z,51.78
2023-02-11T03:18:06.684Z,45.58
2023-02-11T03:20:37.166Z,47.15
2023-02-11T03:23:16.403Z,50.33
2023-02-11T03:25:55.626Z,54.33
2023-02-11T03:28:38.888Z,53.10
2023-02-11T03:31:37.043Z,48.00
2023-02-11T03:34:14.515Z,51.15
2023-02-11T03:36:46.062Z,45.28
2023-02-11T03:39:36.468Z,45.65
2023-02-11T03:42:05.471Z,50.58
2023-02-11T03:44:39.014Z,50.65
2023-02-11T03:47:09.128Z,46.97
2023-02-11T03:49:39.485Z,55.17
2023-02-11T03:52:08.196Z,49.95
2023-02-11T03:54:35.818Z,48.85
2023-02-11T03:57:03.212Z,50.28
2023-02-11T03:59:30.308Z,51.55
2023-02-11T04:01:59.480Z,48.92
2023-02-11T04:04:26.502Z,51.78
2023-02-11T04:06:53.567Z,45.45
2023-02-11T04:09:20.612Z,50.95
2023-02-11T04:11:47.545Z,46.22
2023-02-11T04:14:14.527Z,45.00
2023-02-11T04:16:41.514Z,55.20
2023-02-11T04:19:08.624Z,46.72
2023-02-11T04:21:35.628Z,48.50
2023-02-11T04:24:02.598Z,48.15
2023-02-11T04:26:29.562Z,51.85
2023-02-11T04:28:56.494Z,49.85
2023-02-11T04:31:23.577Z,46.28
2023-02-11T04:33:50.612Z,48.78
2023-02-11T04:36:17.614Z,51.88
2023-02-11T04:38:44.602Z,49.28
2023-02-11T04:41:11.628Z,43.90
2023-02-11T04:43:38.607Z,44.10
2023-02-11T04:46:05.785Z,43.80
2023-02-11T04:48:32.856Z,42.83
2023-02-11T04:50:59.810Z,40.50
2023-02-11T04:53:26.723Z,40.63
2023-02-11T04:55:53.783Z,41.45
2023-02-11T04:58:21.468Z,41.50
2023-02-11T05:00:48.411Z,47.70
2023-02-11T05:03:15.907Z,43.70
2023-02-11T05:05:43.535Z,38.85
2023-02-11T05:08:11.533Z,44.10
2023-02-11T05:10:39.084Z,41.97
2023-02-11T05:13:06.174Z,39.60
2023-02-11T05:15:33.133Z,41.90
2023-02-11T05:18:00.034Z,45.58
2023-02-11T05:20:27.017Z,42.75
2023-02-11T05:22:54.054Z,35.33
2023-02-11T05:25:21.205Z,40.03
2023-02-11T05:27:48.105Z,39.90
2023-02-11T05:30:15.076Z,39.45
2023-02-11T05:32:42.260Z,43.83
2023-02-11T05:35:09.554Z,39.28
2023-02-11T05:37:36.752Z,36.90
2023-02-11T05:40:04.254Z,39.60
2023-02-11T05:42:31.243Z,38.53
2023-02-11T05:44:58.350Z,44.75
2023-02-11T05:47:25.343Z,41.78
2023-02-11T05:49:53.694Z,36.97
2023-02-11T05:52:22.448Z,40.65
2023-02-11T05:54:49.767Z,44.08
2023-02-11T05:57:17.057Z,37.13
2023-02-11T05:59:44.139Z,42.65
2023-02-11T06:02:12.742Z,40.35
2023-02-11T06:04:39.799Z,39.47
2023-02-11T06:07:06.764Z,38.30
2023-02-11T06:09:33.976Z,41.72
2023-02-11T06:12:00.958Z,40.58
2023-02-11T06:14:28.004Z,39.33
2023-02-11T06:16:54.994Z,40.85
2023-02-11T06:19:22.029Z,40.42
2023-02-11T06:21:48.980Z,40.20
2023-02-11T06:24:19.276Z,41.47
2023-02-11T06:26:51.687Z,43.83
2023-02-11T06:29:18.860Z,42.80
2023-02-11T06:31:46.038Z,41.90
2023-02-11T06:34:13.161Z,47.50
2023-02-11T06:36:41.122Z,40.67
2023-02-11T06:39:08.363Z,41.15
2023-02-11T06:41:35.393Z,48.97
2023-02-11T06:44:02.373Z,40.60
2023-02-11T06:46:29.445Z,43.53
2023-02-11T06:48:56.717Z,42.08
2023-02-11T06:51:23.818Z,44.80
2023-02-11T06:53:51.084Z,44.60
2023-02-11T06:56:23.151Z,44.42
2023-02-11T06:58:54.806Z,43.42
2023-02-11T07:01:22.992Z,40.00
2023-02-11T07:03:50.420Z,45.03
2023-02-11T07:06:20.328Z,43.80
2023-02-11T07:08:48.088Z,39.50
2023-02-11T07:11:16.370Z,42.65
2023-02-11T07:13:43.546Z,36.90
2023-02-11T07:16:13.638Z,45.75
2023-02-11T07:18:41.354Z,39.08
2023-02-11T07:21:12.416Z,46.28
2023-02-11T07:23:40.858Z,37.55
2023-02-11T07:26:13.047Z,41.88
2023-02-11T07:28:40.858Z,43.15
2023-02-11T07:31:17.245Z,40.78
2023-02-11T07:33:48.430Z,39.95
2023-02-11T07:36:16.861Z,45.20
2023-02-11T07:38:44.201Z,45.83
2023-02-11T07:41:17.700Z,49.25
2023-02-11T07:43:45.545Z,46.65
2023-02-11T07:46:16.012Z,42.25
2023-02-11T07:48:43.142Z,47.53
2023-02-11T07:51:35.481Z,43.33
2023-02-11T07:54:02.515Z,38.88
2023-02-11T07:56:30.432Z,43.22
2023-02-11T07:59:01.024Z,45.53
2023-02-11T08:01:28.788Z,44.80
2023-02-11T08:03:57.771Z,46.08
2023-02-11T08:06:26.449Z,46.55
2023-02-11T08:08:53.526Z,41.38
2023-02-11T08:11:25.638Z,46.70
2023-02-11T08:13:53.871Z,41.70
2023-02-11T08:16:24.597Z,40.22
2023-02-11T08:18:52.573Z,47.38
2023-02-11T08:21:20.458Z,45.88
2023-02-11T08:23:47.895Z,53.55
2023-02-11T08:26:23.882Z,42.97
2023-02-11T08:28:52.696Z,53.17
2023-02-11T08:31:22.619Z,55.20
2023-02-11T08:33:50.503Z,49.25
2023-02-11T08:36:23.200Z,46.45
2023-02-11T08:38:50.605Z,55.83
2023-02-11T08:41:18.227Z,53.70
2023-02-11T08:43:46.137Z,51.47
2023-02-11T08:46:18.426Z,52.97
2023-02-11T08:48:46.880Z,48.35
2023-02-11T08:51:17.652Z,63.20
2023-02-11T08:53:45.531Z,48.42
2023-02-11T08:56:15.843Z,43.33
2023-02-11T08:58:43.220Z,51.30
2023-02-11T09:01:17.066Z,47.05
2023-02-11T09:03:44.695Z,44.78
2023-02-11T09:06:12.924Z,49.35
2023-02-11T09:08:45.289Z,52.20
2023-02-11T09:11:14.140Z,49.80
2023-02-11T09:13:42.998Z,46.90
2023-02-11T09:16:23.651Z,46.47
2023-02-11T09:18:51.189Z,51.08
2023-02-11T09:21:19.583Z,43.95
2023-02-11T09:23:48.013Z,45.22
2023-02-11T09:26:19.441Z,57.35
2023-02-11T09:28:47.139Z,42.05
2023-02-11T09:31:17.035Z,39.90
2023-02-11T09:33:48.953Z,55.72
2023-02-11T09:36:19.540Z,46.85
2023-02-11T09:38:47.168Z,52.47
2023-02-11T09:41:22.926Z,45.05
2023-02-11T09:46:32.327Z,55.22
2023-02-11T09:49:00.062Z,52.42
2023-02-11T09:51:42.319Z,50.17
2023-02-11T09:54:21.663Z,50.20
2023-02-11T09:56:48.704Z,43.63
2023-02-11T09:59:17.601Z,45.13
2023-02-11T10:01:53.377Z,51.70
2023-02-11T10:06:51.796Z,46.90
2023-02-11T10:09:40.495Z,41.33
2023-02-11T10:12:16.849Z,46.88
2023-02-11T10:15:14.854Z,35.65
2023-02-11T10:17:51.077Z,42.17
2023-02-11T10:20:24.785Z,39.90
2023-02-11T10:22:58.446Z,44.25
2023-02-11T10:25:38.979Z,39.55
2023-02-11T10:28:15.992Z,46.60
2023-02-11T10:31:00.897Z,43.13
2023-02-11T10:33:39.836Z,36.20
2023-02-11T10:36:07.293Z,41.10
2023-02-11T10:38:36.465Z,43.92
2023-02-11T10:41:03.763Z,38.10
2023-02-11T10:43:32.160Z,38.25
2023-02-11T10:46:01.143Z,35.83
2023-02-11T10:48:42.239Z,36.80
2023-02-11T10:51:21.244Z,39.45
2023-02-11T10:54:04.640Z,40.38
2023-02-11T10:56:35.477Z,41.42
2023-02-11T10:59:15.436Z,39.63
2023-02-11T11:01:53.561Z,36.50
2023-02-11T11:04:43.163Z,40.33
2023-02-11T11:07:30.026Z,35.72
2023-02-11T11:10:26.483Z,34.72
2023-02-11T11:12:53.508Z,31.98
2023-02-11T11:15:28.740Z,37.83
2023-02-11T11:18:21.476Z,35.42
2023-02-11T11:20:59.902Z,32.15
2023-02-11T11:23:29.861Z,33.85
2023-02-11T11:26:13.762Z,34.17
2023-02-11T11:29:02.484Z,33.38
2023-02-11T11:31:48.424Z,35.47
2023-02-11T11:34:28.687Z,36.38
2023-02-11T11:36:57.253Z,37.35
2023-02-11T11:39:33.003Z,39.65
2023-02-11T11:44:29.045Z,41.85
2023-02-11T11:47:29.273Z,37.95
2023-02-11T11:50:11.777Z,39.55
2023-02-11T11:52:48.210Z,37.10
2023-02-11T11:55:20.008Z,37.13
2023-02-11T11:57:48.759Z,44.58
2023-02-11T12:00:19.900Z,39.30
2023-02-11T12:03:04.405Z,33.53
2023-02-11T12:06:13.561Z,41.03
2023-02-11T12:09:02.074Z,35.92
2023-02-11T12:12:02.262Z,39.60
2023-02-11T12:14:43.184Z,38.53
2023-02-11T12:17:40.124Z,39.38
2023-02-11T12:20:26.239Z,33.47
2023-02-11T12:23:21.657Z,36.75
2023-02-11T12:25:56.153Z,40.25
2023-02-11T12:29:05.573Z,39.60
2023-02-11T12:32:10.304Z,38.47
2023-02-11T12:34:59.097Z,38.83
2023-02-11T12:37:44.200Z,37.55
2023-02-11T12:40:32.092Z,36.47
2023-02-11T12:43:18.194Z,34.28
2023-02-11T12:45:57.986Z,36.38
2023-02-11T12:48:52.566Z,31.02
2023-02-11T12:51:40.863Z,30.85
2023-02-11T12:54:19.993Z,36.17
2023-02-11T12:57:11.649Z,31.88
2023-02-11T12:59:56.397Z,31.23
2023-02-11T13:02:45.641Z,31.63
2023-02-11T13:05:38.644Z,24.75
2023-02-11T13:08:17.638Z,35.70
2023-02-11T13:10:49.592Z,30.70
2023-02-11T13:13:23.836Z,30.73
2023-02-11T13:16:11.611Z,36.00
2023-02-11T13:19:00.452Z,28.70
2023-02-11T13:22:04.100Z,30.10
2023-02-11T13:24:49.637Z,30.63
2023-02-11T13:27:42.778Z,30.95
2023-02-11T13:30:29.541Z,25.90
2023-02-11T13:32:56.665Z,23.30
2023-02-11T13:35:32.446Z,29.50
2023-02-11T13:38:02.099Z,26.98
2023-02-11T13:40:34.967Z,27.23
2023-02-11T13:43:07.462Z,27.02
2023-02-11T13:45:43.600Z,28.20
2023-02-11T13:48:31.530Z,29.67
2023-02-11T13:51:02.141Z,30.58
2023-02-11T13:53:30.523Z,27.67
2023-02-11T13:56:22.919Z,26.17
2023-02-11T13:58:51.260Z,29.02
2023-02-11T14:02:07.864Z,33.10
2023-02-11T14:04:53.701Z,28.77
2023-02-11T14:07:47.576Z,27.05
2023-02-11T14:10:42.394Z,27.33
2023-02-11T14:13:27.944Z,28.60
2023-02-11T14:16:09.070Z,24.23
2023-02-11T14:18:45.024Z,28.10
2023-02-11T14:21:13.321Z,23.48
2023-02-11T14:23:41.289Z,22.88
2023-02-11T14:26:31.890Z,24.63
2023-02-11T14:29:34.793Z,23.05
2023-02-11T14:32:25.756Z,22.83
2023-02-11T14:35:20.574Z,27.10
2023-02-11T14:38:05.377Z,27.25
2023-02-11T14:40:47.147Z,23.15
2023-02-11T14:43:37.129Z,22.20
2023-02-11T14:46:04.745Z,23.75
2023-02-11T14:48:37.481Z,26.83
2023-02-11T14:51:20.840Z,29.83
2023-02-11T14:53:50.940Z,27.08
2023-02-11T14:56:27.914Z,27.85
2023-02-11T14:58:55.913Z,34.55
2023-02-11T15:01:34.035Z,30.15
2023-02-11T15:04:03.821Z,24.98
2023-02-11T15:06:39.397Z,24.80
2023-02-11T15:09:18.997Z,27.95
2023-02-11T15:11:48.851Z,24.67
2023-02-11T15:14:30.798Z,23.00
2023-02-11T15:17:02.092Z,24.50
2023-02-11T15:19:51.101Z,26.83
2023-02-11T15:22:22.468Z,24.90
2023-02-11T15:25:10.723Z,27.67
2023-02-11T15:27:58.404Z,30.52
2023-02-11T15:30:34.148Z,28.10
2023-02-11T15:33:25.431Z,26.30
2023-02-11T15:35:52.549Z,26.75
2023-02-11T15:38:19.525Z,29.58
2023-02-11T15:41:47.893Z,26.02
2023-02-11T15:44:28.794Z,24.98
2023-02-11T15:46:55.838Z,27.73
2023-02-11T15:49:24.687Z,24.60
2023-02-11T15:51:54.117Z,27.30
2023-02-11T15:54:26.697Z,27.13
2023-02-11T15:56:59.453Z,24.98
2023-02-11T15:59:38.241Z,30.10
2023-02-11T16:02:33.771Z,27.33
2023-02-11T16:05:05.280Z,29.27
2023-02-11T16:07:45.175Z,25.95
2023-02-11T16:10:31.504Z,27.60
2023-02-11T16:15:34.075Z,26.27
2023-02-11T16:18:31.049Z,26.25
2023-02-11T16:21:06.477Z,30.02
2023-02-11T16:23:42.066Z,27.15
2023-02-11T16:28:47.811Z,29.20
2023-02-11T16:31:14.949Z,28.85
2023-02-11T16:33:41.925Z,33.38
2023-02-11T16:36:13.862Z,27.42
2023-02-11T16:38:40.972Z,34.03
2023-02-11T16:41:08.846Z,29.27
2023-02-11T16:43:35.873Z,32.67
2023-02-11T16:46:04.034Z,28.52
2023-02-11T16:48:32.302Z,32.42
2023-02-11T16:50:59.408Z,29.65
2023-02-11T16:53:26.598Z,30.05
2023-02-11T16:55:54.650Z,29.25
2023-02-11T16:58:21.715Z,29.08
2023-02-11T17:00:49.191Z,29.70
2023-02-11T17:03:22.732Z,32.33
2023-02-11T17:05:58.216Z,33.47
2023-02-11T17:08:25.626Z,78.57
2023-02-11T17:10:52.969Z,34.67
2023-02-11T17:13:20.300Z,34.80
2023-02-11T17:15:47.287Z,41.03
2023-02-11T17:18:14.797Z,35.78
2023-02-11T17:20:42.029Z,37.28
2023-02-11T17:23:09.702Z,34.40
2023-02-11T17:25:37.435Z,35.45
2023-02-11T17:28:05.870Z,32.88
2023-02-11T17:30:32.840Z,36.28
2023-02-11T17:32:59.929Z,33.30
2023-02-11T17:35:27.070Z,36.95
2023-02-11T17:37:54.101Z,40.10
2023-02-11T17:40:21.295Z,32.40
2023-02-11T17:42:48.220Z,35.08
2023-02-11T17:45:15.257Z,35.65
2023-02-11T17:47:42.324Z,34.45
2023-02-11T17:50:09.706Z,39.33
2023-02-11T17:52:37.812Z,38.85
2023-02-11T17:55:06.222Z,34.78
2023-02-11T17:57:33.732Z,35.85
2023-02-11T18:00:00.734Z,35.95
2023-02-11T18:02:27.815Z,36.80
2023-02-11T18:04:57.505Z,40.05
2023-02-11T18:07:25.953Z,35.97
2023-02-11T18:09:53.160Z,36.33
2023-02-11T18:12:25.238Z,37.00
2023-02-11T18:14:58.133Z,34.72
2023-02-11T18:17:25.524Z,41.08
2023-02-11T18:19:56.955Z,34.50
2023-02-11T18:22:24.848Z,42.17
2023-02-11T18:24:53.607Z,44.08
2023-02-11T18:27:21.935Z,37.90
2023-02-11T18:29:48.923Z,45.75
2023-02-11T18:32:15.909Z,48.83
2023-02-11T18:34:43.154Z,42.20
2023-02-11T18:37:10.377Z,35.97
2023-02-11T18:39:37.587Z,43.22
2023-02-11T18:42:04.818Z,44.80
2023-02-11T18:44:31.909Z,42.03
2023-02-11T18:46:58.888Z,46.55
2023-02-11T18:49:25.818Z,42.45
2023-02-11T18:51:53.189Z,41.03
2023-02-11T18:54:38.616Z,39.85
2023-02-11T18:57:05.570Z,43.40
2023-02-11T18:59:32.569Z,45.33
2023-02-11T19:01:59.773Z,40.58
2023-02-11T19:04:26.855Z,39.33
2023-02-11T19:06:53.812Z,44.38
2023-02-11T19:09:21.051Z,44.65
2023-02-11T19:11:48.949Z,44.47
2023-02-11T19:14:22.483Z,45.65
2023-02-11T19:16:51.249Z,44.30
2023-02-11T19:19:19.130Z,49.10
2023-02-11T19:21:47.356Z,46.33
2023-02-11T19:24:19.840Z,41.83
2023-02-11T19:26:48.847Z,46.15
2023-02-11T19:29:16.278Z,53.72
2023-02-11T19:31:44.072Z,49.08
2023-02-11T19:34:14.069Z,45.35
2023-02-11T19:36:41.809Z,53.70
2023-02-11T19:39:10.006Z,54.35
2023-02-11T19:41:37.337Z,49.92
2023-02-11T19:44:05.286Z,47.58
2023-02-11T19:46:36.463Z,50.60
2023-02-11T19:49:04.217Z,55.30
2023-02-11T19:51:33.545Z,49.28
2023-02-11T19:54:01.289Z,51.80
2023-02-11T19:56:29.271Z,47.50
2023-02-11T19:58:56.415Z,48.20
2023-02-11T20:01:24.766Z,48.67
2023-02-11T20:03:54.283Z,48.58
2023-02-11T20:06:24.753Z,51.17
2023-02-11T20:09:00.171Z,51.63
2023-02-11T20:11:29.875Z,52.17
2023-02-11T20:13:57.402Z,48.75
2023-02-11T20:16:40.655Z,49.92
2023-02-11T20:19:08.179Z,49.42
2023-02-11T20:21:35.092Z,54.72
2023-02-11T20:24:02.114Z,53.63
2023-02-11T20:26:32.376Z,51.97
2023-02-11T20:29:03.804Z,51.72
2023-02-11T20:31:32.264Z,50.00
2023-02-11T20:34:00.923Z,50.72
2023-02-11T20:36:35.588Z,110.38
2023-02-11T20:39:04.990Z,51.67
2023-02-11T20:41:39.277Z,52.53
2023-02-11T20:44:08.622Z,51.33
2023-02-11T20:46:40.053Z,51.70
2023-02-11T20:49:08.611Z,50.95
2023-02-11T20:51:36.920Z,49.17
2023-02-11T20:54:06.055Z,47.45
2023-02-11T20:56:35.283Z,52.97
2023-02-11T20:59:04.053Z,55.80
2023-02-11T21:01:37.142Z,54.47
2023-02-11T21:04:17.066Z,49.92
2023-02-11T21:06:47.335Z,50.85
2023-02-11T21:09:20.380Z,48.85
2023-02-11T21:11:48.495Z,54.90
2023-02-11T21:14:15.703Z,59.75
2023-02-11T21:16:42.730Z,48.70
2023-02-11T21:19:09.876Z,54.35
2023-02-11T21:21:37.682Z,49.70
2023-02-11T21:24:05.988Z,52.75
2023-02-11T21:26:35.322Z,49.58
2023-02-11T21:29:04.002Z,51.05
2023-02-11T21:31:33.221Z,51.10
2023-02-11T21:34:00.644Z,52.13
2023-02-11T21:36:29.542Z,55.55
2023-02-11T21:38:56.799Z,51.78
2023-02-11T21:41:24.816Z,48.13
2023-02-11T21:43:52.788Z,50.95
2023-02-11T21:46:20.867Z,48.97
2023-02-11T21:48:48.843Z,56.30
2023-02-11T21:51:25.995Z,51.05
2023-02-11T21:53:58.709Z,55.95
2023-02-11T21:56:28.079Z,55.03
2023-02-11T21:58:57.257Z,50.08
2023-02-11T22:01:28.032Z,58.80
2023-02-11T22:03:55.236Z,58.15
2023-02-11T22:06:26.258Z,60.20
2023-02-11T22:08:54.267Z,56.25
2023-02-11T22:11:21.229Z,59.42
2023-02-11T22:13:48.192Z,52.78
2023-02-11T22:16:16.624Z,50.33
2023-02-11T22:18:47.077Z,54.78
2023-02-11T22:21:17.505Z,58.42
2023-02-11T22:23:44.841Z,53.63
2023-02-11T22:26:14.959Z,53.83
2023-02-11T22:28:42.652Z,52.97
2023-02-11T22:31:15.567Z,50.88
2023-02-11T22:33:42.986Z,51.83
2023-02-11T22:36:19.158Z,50.08
2023-02-11T22:38:46.538Z,51.40
2023-02-11T22:41:13.980Z,51.30
2023-02-11T22:43:42.961Z,48.95
2023-02-11T22:46:12.405Z,60.05
2023-02-11T22:48:39.681Z,48.70
2023-02-11T22:51:07.711Z,54.33
2023-02-11T22:53:34.691Z,54.70
2023-02-11T22:56:09.628Z,48.28
2023-02-11T22:58:36.808Z,51.83
2023-02-11T23:01:05.397Z,53.75
2023-02-11T23:03:33.625Z,50.50
2023-02-11T23:06:01.534Z,53.58
2023-02-11T23:08:29.632Z,52.15
2023-02-11T23:10:57.035Z,52.75
2023-02-11T23:13:23.960Z,51.78
2023-02-11T23:15:50.860Z,56.17
2023-02-11T23:18:17.748Z,54.92
2023-02-11T23:20:45.161Z,54.80
2023-02-11T23:23:12.502Z,54.53
2023-02-11T23:25:44.068Z,60.25
2023-02-11T23:28:12.247Z,55.10
2023-02-11T23:30:39.519Z,59.83
2023-02-11T23:33:06.614Z,57.50
2023-02-11T23:35:33.724Z,57.15
2023-02-11T23:38:00.764Z,56.20
2023-02-11T23:40:27.801Z,59.00
2023-02-11T23:42:54.853Z,57.45
2023-02-11T23:45:22.635Z,58.47
2023-02-11T23:47:49.746Z,59.33
2023-02-11T23:50:39.611Z,56.80
2023-02-11T23:53:06.656Z,57.90
2023-02-11T23:55:39.867Z,62.00
2023-02-11T23:58:06.890Z,59.38
